Terminal Aerodrome Forecast
Issued by NWS Twin Cities, MN

Home | Current Version | Previous Version | Text Only | Print | Product List | Glossary On
Versions: 1 2 3 4 5 6 7 8 9 10 11 12 13 14
000
FTUS43 KMPX 292300
TAFEAU
TAF
KEAU 292336Z 3000/3024 30011KT P6SM SCT060 BKN090
      TEMPO 3000/3001 6SM -SHRA BKN050
     FM300200 30004KT P6SM FEW100
     FM301500 32009KT P6SM SCT050=

USA.gov is the U.S. government's official web portal to all federal, state and local government web resources and services.